Time;durP1;ratioP1;P1;durP2;ratioP2;P2;SDS_P1;SDS_P2;PMS_P1;PMS_P2;Temp;Humidity;BMP_temperature;BMP_pressure;BME280_temperature;BME280_humidity;BME280_pressure;Samples;Min_cycle;Max_cycle;Signal;HPM_P1;HPM_P2
2024/03/20 00:03:00;;;;;;;33.10;16.60;;;;;;;1.12;96.19;101429.93;105836;1257;104907;-76
2024/03/20 00:05:46;;;;;;;31.60;16.60;;;;;;;1.09;95.84;101429.98;105548;1259;100311;-79
2024/03/20 00:08:31;;;;;;;30.10;16.10;;;;;;;1.07;95.83;101428.86;105553;1259;98098;-77
2024/03/20 00:11:17;;;;;;;31.90;18.50;;;;;;;1.04;95.83;101430.52;105650;1260;98018;-79
2024/03/20 00:14:06;;;;;;;30.40;17.90;;;;;;;1.01;95.96;101431.77;105597;1256;97883;-79
2024/03/20 00:16:51;;;;;;;30.70;18.00;;;;;;;1.00;95.97;101432.19;105623;1256;101959;-77
2024/03/20 00:19:37;;;;;;;36.30;18.20;;;;;;;0.99;96.00;101430.70;105696;1256;99097;-79
2024/03/20 00:22:22;;;;;;;35.10;18.60;;;;;;;0.98;96.03;101430.38;105678;1260;99026;-78
2024/03/20 00:25:09;;;;;;;42.80;19.00;;;;;;;0.97;95.97;101431.30;105597;1259;97958;-79
2024/03/20 00:27:55;;;;;;;51.20;23.70;;;;;;;0.97;96.11;101430.10;106101;1260;98096;-80
2024/03/20 00:30:40;;;;;;;52.80;26.20;;;;;;;0.96;95.83;101427.00;105638;1260;101408;-79
2024/03/20 00:33:25;;;;;;;69.10;30.50;;;;;;;0.95;95.84;101424.61;105634;1256;99089;-78
2024/03/20 00:36:11;;;;;;;81.60;34.90;;;;;;;0.95;96.17;101429.04;105495;1257;97971;-77
2024/03/20 00:38:56;;;;;;;85.80;36.20;;;;;;;0.93;96.22;101429.84;105567;1257;97993;-77
2024/03/20 00:41:41;;;;;;;84.70;37.20;;;;;;;0.92;96.72;101429.02;105598;1256;98608;-79
2024/03/20 00:44:27;;;;;;;84.60;35.70;;;;;;;0.91;96.42;101425.80;105652;1257;102375;-77
2024/03/20 00:47:12;;;;;;;69.60;33.60;;;;;;;0.86;96.15;101420.28;105610;1259;100324;-78
2024/03/20 00:49:58;;;;;;;60.80;28.50;;;;;;;0.83;95.86;101418.25;105646;1259;99624;-78
2024/03/20 00:52:43;;;;;;;48.20;24.70;;;;;;;0.79;95.85;101416.23;105689;1256;98083;-78
2024/03/20 00:55:29;;;;;;;38.00;21.10;;;;;;;0.77;96.43;101415.80;105537;1256;96640;-78
2024/03/20 00:58:14;;;;;;;44.30;20.00;;;;;;;0.71;96.23;101415.88;105592;1260;101367;-78
2024/03/20 01:01:00;;;;;;;36.00;19.50;;;;;;;0.64;96.12;101415.31;105677;1257;99394;-77
2024/03/20 01:03:45;;;;;;;38.60;19.70;;;;;;;0.59;96.03;101418.08;105611;1260;98989;-77
2024/03/20 01:06:31;;;;;;;33.30;19.10;;;;;;;0.54;95.97;101416.01;105741;1256;98844;-79
2024/03/20 01:09:17;;;;;;;31.90;18.40;;;;;;;0.51;96.14;101413.18;106037;1259;98005;-79
2024/03/20 01:12:02;;;;;;;32.30;18.00;;;;;;;0.50;96.04;101412.95;106254;1262;101451;-79
2024/03/20 01:14:48;;;;;;;32.00;18.10;;;;;;;0.47;96.03;101407.52;105667;1261;99090;-78
2024/03/20 01:17:33;;;;;;;33.60;18.00;;;;;;;0.45;96.08;101406.42;105564;1256;99477;-78
2024/03/20 01:20:19;;;;;;;32.10;17.40;;;;;;;0.44;95.83;101405.11;105742;1256;97901;-78
2024/03/20 01:23:04;;;;;;;31.40;18.20;;;;;;;0.43;95.80;101401.67;105729;1259;98496;-78
2024/03/20 01:25:50;;;;;;;32.70;19.00;;;;;;;0.41;95.90;101401.08;105781;1257;101381;-79
2024/03/20 01:28:35;;;;;;;40.00;19.90;;;;;;;0.40;95.70;101403.42;105774;1257;99102;-79
2024/03/20 01:31:21;;;;;;;31.30;18.70;;;;;;;0.39;95.71;101401.59;105828;1256;97917;-78
2024/03/20 01:34:07;;;;;;;32.60;18.20;;;;;;;0.38;95.73;101404.59;105736;1260;97956;-77
2024/03/20 01:36:52;;;;;;;32.70;18.80;;;;;;;0.38;95.42;101403.43;105587;1260;98426;-79
2024/03/20 01:39:37;;;;;;;34.10;19.00;;;;;;;0.36;95.31;101404.42;105782;1256;101324;-78
2024/03/20 01:42:23;;;;;;;35.90;19.10;;;;;;;0.35;95.52;101404.27;105770;1257;99874;-77
2024/03/20 01:45:17;;;;;;;38.40;20.20;;;;;;;0.34;95.51;101404.89;105749;1260;98665;-79
2024/03/20 01:48:03;;;;;;;41.60;19.80;;;;;;;0.31;95.48;101404.02;106115;1256;97968;-79
2024/03/20 01:50:49;;;;;;;37.20;20.30;;;;;;;0.28;95.41;101403.02;106046;1260;97898;-78
2024/03/20 01:53:34;;;;;;;34.60;19.20;;;;;;;0.25;95.47;101404.80;106133;1260;101322;-79
2024/03/20 01:56:20;;;;;;;38.60;21.40;;;;;;;0.23;95.65;101408.97;105619;1258;99174;-78
2024/03/20 01:59:05;;;;;;;35.40;21.70;;;;;;;0.23;95.79;101413.21;105646;1261;98655;-78
2024/03/20 02:01:51;;;;;;;40.20;19.60;;;;;;;0.22;95.61;101417.85;105805;1256;97884;-79
2024/03/20 02:04:37;;;;;;;36.30;19.50;;;;;;;0.21;95.64;101418.77;105786;1256;98415;-77
2024/03/20 02:07:23;;;;;;;35.90;19.00;;;;;;;0.19;95.70;101417.10;105874;1260;102923;-79
2024/03/20 02:10:09;;;;;;;37.40;21.30;;;;;;;0.19;95.61;101421.04;105670;1259;99981;-78
2024/03/20 02:13:05;;;;;;;40.70;21.70;;;;;;;0.16;95.51;101421.35;105639;1256;97977;-78
2024/03/20 02:15:51;;;;;;;39.40;21.10;;;;;;;0.15;95.73;101425.64;105437;1260;98685;-78
2024/03/20 02:18:36;;;;;;;43.60;22.00;;;;;;;0.15;95.98;101419.72;105616;1257;98425;-78
2024/03/20 02:21:23;;;;;;;38.30;21.00;;;;;;;0.13;96.05;101420.69;105779;1257;101929;-78
2024/03/20 02:24:09;;;;;;;43.00;21.20;;;;;;;0.11;96.21;101421.70;105708;1257;99078;-78
2024/03/20 02:26:54;;;;;;;44.90;20.70;;;;;;;0.09;96.17;101418.32;105943;1260;98461;-78
2024/03/20 02:29:40;;;;;;;33.70;20.20;;;;;;;0.06;96.03;101415.40;105590;1256;99253;-77
2024/03/20 02:32:26;;;;;;;36.80;19.80;;;;;;;0.02;95.89;101412.27;105675;1260;98676;-78
2024/03/20 02:35:11;;;;;;;35.30;19.10;;;;;;;-0.02;95.55;101411.64;105639;1256;103081;-78
2024/03/20 02:37:56;;;;;;;34.10;18.00;;;;;;;-0.06;95.33;101410.67;105516;1259;99234;-77
2024/03/20 02:40:42;;;;;;;40.30;19.90;;;;;;;-0.08;95.27;101408.04;105752;1260;98443;-77
2024/03/20 02:43:28;;;;;;;38.20;19.70;;;;;;;-0.09;95.15;101409.72;105813;1256;99273;-78
2024/03/20 02:46:13;;;;;;;42.60;19.90;;;;;;;-0.12;95.23;101404.98;105867;1260;98160;-78
2024/03/20 02:48:58;;;;;;;37.60;20.90;;;;;;;-0.14;95.36;101396.67;105893;1259;111394;-79
2024/03/20 02:51:44;;;;;;;38.70;20.10;;;;;;;-0.16;95.40;101399.74;105723;1261;99143;-78
2024/03/20 02:54:29;;;;;;;38.90;20.70;;;;;;;-0.17;95.28;101398.98;105572;1262;97976;-78
2024/03/20 02:57:14;;;;;;;36.80;20.80;;;;;;;-0.18;95.44;101397.84;105748;1260;97890;-78
2024/03/20 03:00:00;;;;;;;39.00;20.70;;;;;;;-0.20;95.41;101392.35;105871;1256;98750;-79
2024/03/20 03:02:45;;;;;;;38.20;20.40;;;;;;;-0.22;95.34;101391.22;105851;1256;101370;-78
2024/03/20 03:05:31;;;;;;;37.20;20.50;;;;;;;-0.22;95.52;101390.55;105900;1260;100361;-79
2024/03/20 03:08:16;;;;;;;38.10;20.70;;;;;;;-0.23;95.76;101394.64;105757;1258;205350;-77
2024/03/20 03:11:01;;;;;;;39.60;22.00;;;;;;;-0.25;95.77;101390.36;105946;1256;97976;-78
2024/03/20 03:13:47;;;;;;;38.70;20.70;;;;;;;-0.28;95.63;101389.30;105908;1256;97763;-78
2024/03/20 03:16:32;;;;;;;45.90;22.30;;;;;;;-0.30;95.66;101387.55;105897;1260;102677;-78
2024/03/20 03:19:18;;;;;;;37.00;20.00;;;;;;;-0.33;95.62;101391.41;105897;1256;99245;-78
2024/03/20 03:22:03;;;;;;;42.00;20.20;;;;;;;-0.34;95.70;101391.34;105911;1262;99114;-78
2024/03/20 03:24:49;;;;;;;33.40;18.50;;;;;;;-0.38;95.54;101389.60;105973;1260;97882;-78
2024/03/20 03:27:35;;;;;;;39.20;19.10;;;;;;;-0.41;95.36;101391.27;105977;1259;98491;-79
2024/03/20 03:30:20;;;;;;;35.70;19.20;;;;;;;-0.45;95.55;101390.41;105881;1259;101321;-79
2024/03/20 03:33:05;;;;;;;38.30;18.60;;;;;;;-0.47;95.74;101394.41;105902;1262;99133;-78
2024/03/20 03:35:51;;;;;;;35.90;18.10;;;;;;;-0.48;95.58;101398.89;105989;1255;98721;-77
2024/03/20 03:38:36;;;;;;;33.80;18.00;;;;;;;-0.49;95.33;101399.83;105895;1256;97903;-78
2024/03/20 03:41:22;;;;;;;40.00;19.30;;;;;;;-0.52;95.25;101402.81;105961;1259;98541;-78
2024/03/20 03:44:07;;;;;;;33.70;18.60;;;;;;;-0.54;95.16;101405.05;105977;1259;102642;-79
2024/03/20 03:46:53;;;;;;;30.30;17.70;;;;;;;-0.56;95.07;101406.61;105945;1260;100375;-78
2024/03/20 03:49:38;;;;;;;33.00;18.50;;;;;;;-0.61;94.82;101407.25;105932;1255;99275;-78
2024/03/20 03:52:24;;;;;;;32.70;18.90;;;;;;;-0.64;94.84;101406.02;105852;1262;98095;-79
2024/03/20 03:55:09;;;;;;;36.60;19.90;;;;;;;-0.67;94.76;101406.08;105951;1260;99958;-79
2024/03/20 03:57:55;;;;;;;36.60;18.90;;;;;;;-0.70;94.83;101405.21;105929;1256;101597;-79
2024/03/20 04:00:41;;;;;;;35.70;19.40;;;;;;;-0.72;94.90;101401.99;105969;1256;99138;-77
2024/03/20 04:03:27;;;;;;;37.80;19.80;;;;;;;-0.74;94.88;101401.60;105828;1260;98819;-79
2024/03/20 04:06:13;;;;;;;33.60;17.90;;;;;;;-0.76;94.89;101405.77;105893;1256;97997;-77
2024/03/20 04:08:58;;;;;;;32.20;18.20;;;;;;;-0.77;95.00;101403.55;106013;1259;98502;-79
2024/03/20 04:11:43;;;;;;;35.60;18.60;;;;;;;-0.76;95.13;101404.39;105716;1259;102166;-78
2024/03/20 04:14:28;;;;;;;34.30;17.70;;;;;;;-0.79;94.93;101401.52;105978;1256;100327;-79
2024/03/20 04:17:14;;;;;;;33.30;17.70;;;;;;;-0.81;94.83;101402.02;105955;1256;97696;-79
2024/03/20 04:19:59;;;;;;;35.80;18.30;;;;;;;-0.83;94.66;101402.48;106112;1255;98356;-78
2024/03/20 04:22:47;;;;;;;31.30;16.40;;;;;;;-0.84;94.59;101405.16;106110;1256;99166;-78
2024/03/20 04:25:32;;;;;;;34.60;17.20;;;;;;;-0.85;94.59;101404.94;106109;1257;102808;-79
2024/03/20 04:28:18;;;;;;;32.40;16.90;;;;;;;-0.87;94.66;101402.20;106001;1257;100368;-77
2024/03/20 04:31:05;;;;;;;29.90;17.10;;;;;;;-0.89;94.80;101402.00;106005;1256;98991;-78
2024/03/20 04:33:50;;;;;;;32.60;16.70;;;;;;;-0.91;94.75;101404.36;106027;1256;97956;-78
2024/03/20 04:36:36;;;;;;;39.00;18.00;;;;;;;-0.92;94.75;101402.35;106054;1256;98485;-79
2024/03/20 04:39:28;;;;;;;32.30;17.50;;;;;;;-0.95;94.90;101401.64;106037;1257;101518;-77
2024/03/20 04:42:13;;;;;;;34.80;17.00;;;;;;;-0.97;94.87;101403.33;105985;1261;100377;-79
2024/03/20 04:44:58;;;;;;;31.30;16.10;;;;;;;-0.99;94.77;101399.42;106111;1256;97753;-78
2024/03/20 04:47:44;;;;;;;32.60;18.70;;;;;;;-0.99;94.88;101396.31;106164;1260;98004;-78
2024/03/20 04:50:29;;;;;;;31.70;16.10;;;;;;;-1.00;94.73;101400.76;106037;1262;98004;-78
2024/03/20 04:53:14;;;;;;;35.30;17.20;;;;;;;-1.03;94.71;101404.95;106038;1256;101339;-79
2024/03/20 04:56:00;;;;;;;35.80;18.00;;;;;;;-1.05;94.82;101405.41;106184;1256;100015;-77
2024/03/20 04:58:45;;;;;;;30.40;15.70;;;;;;;-1.05;94.93;101406.50;105584;1261;98052;-79
2024/03/20 05:01:31;;;;;;;31.10;16.60;;;;;;;-1.05;94.99;101407.34;105510;1260;98007;-78
2024/03/20 05:04:16;;;;;;;31.80;17.10;;;;;;;-1.04;94.86;101412.59;106021;1259;97903;-78
2024/03/20 05:07:02;;;;;;;33.10;17.00;;;;;;;-1.06;94.90;101415.86;105780;1260;101368;-78
2024/03/20 05:09:47;;;;;;;31.10;16.10;;;;;;;-1.08;94.98;101425.09;105936;1261;99245;-79
2024/03/20 05:12:33;;;;;;;30.00;16.30;;;;;;;-1.10;95.00;101425.58;106048;1261;97910;-79
2024/03/20 05:15:18;;;;;;;31.90;16.50;;;;;;;-1.10;95.23;101426.94;106022;1256;97859;-81
2024/03/20 05:18:04;;;;;;;32.50;16.00;;;;;;;-1.08;95.52;101429.79;106623;1256;97975;-80
2024/03/20 05:20:49;;;;;;;35.70;17.30;;;;;;;-1.08;95.55;101430.86;106439;1259;102032;-78
2024/03/20 05:23:35;;;;;;;36.70;18.00;;;;;;;-1.07;95.65;101432.40;105554;1259;99370;-78
2024/03/20 05:26:21;;;;;;;34.60;16.40;;;;;;;-1.07;95.81;101435.02;105487;1259;98329;-76
2024/03/20 05:29:06;;;;;;;34.60;18.40;;;;;;;-1.07;95.93;101431.31;105699;1256;98140;-77
2024/03/20 05:31:52;;;;;;;37.80;17.90;;;;;;;-1.06;96.01;101427.05;106132;1257;97994;-78
2024/03/20 05:34:37;;;;;;;31.60;16.90;;;;;;;-1.04;96.04;101433.09;105972;1258;101330;-78
2024/03/20 05:37:23;;;;;;;31.10;16.50;;;;;;;-1.02;96.32;101428.59;105583;1256;99121;-78
2024/03/20 05:40:09;;;;;;;34.00;17.60;;;;;;;-1.02;96.45;101429.44;105617;1256;97874;-78
2024/03/20 05:42:54;;;;;;;34.90;17.70;;;;;;;-0.99;96.56;101428.23;105466;1262;97876;-78
2024/03/20 05:45:40;;;;;;;36.50;17.20;;;;;;;-0.96;96.96;101429.59;105672;1258;99216;-76
2024/03/20 05:48:26;;;;;;;36.00;17.10;;;;;;;-0.92;97.27;101430.25;105745;1257;102853;-79
2024/03/20 05:51:11;;;;;;;29.70;16.10;;;;;;;-0.89;97.64;101433.04;106524;1259;100304;-79
2024/03/20 05:53:56;;;;;;;33.30;16.90;;;;;;;-0.86;97.96;101436.38;105963;1260;98514;-79
2024/03/20 05:56:42;;;;;;;32.70;16.00;;;;;;;-0.85;98.15;101438.57;106069;1256;97946;-78
2024/03/20 05:59:27;;;;;;;31.40;16.60;;;;;;;-0.85;98.60;101438.02;106197;1256;97864;-79
2024/03/20 06:02:13;;;;;;;31.90;18.30;;;;;;;-0.83;99.01;101441.59;105884;1260;101258;-77
2024/03/20 06:04:58;;;;;;;36.90;18.00;;;;;;;-0.81;99.36;101450.06;106062;1256;99137;-79
2024/03/20 06:07:44;;;;;;;33.80;18.00;;;;;;;-0.80;99.87;101449.64;106239;1261;98074;-80
2024/03/20 06:10:30;;;;;;;31.10;18.20;;;;;;;-0.78;100.00;101451.81;106446;1256;98045;-80
2024/03/20 06:13:15;;;;;;;31.30;17.40;;;;;;;-0.73;100.00;101456.23;106308;1261;98396;-80
2024/03/20 06:16:01;;;;;;;34.30;18.00;;;;;;;-0.68;100.00;101457.70;105880;1256;102119;-78
2024/03/20 06:18:46;;;;;;;35.10;18.30;;;;;;;-0.65;100.00;101458.00;105886;1256;99139;-79
2024/03/20 06:21:32;;;;;;;31.50;17.60;;;;;;;-0.60;100.00;101454.92;105875;1256;98277;-79
2024/03/20 06:24:18;;;;;;;32.20;17.50;;;;;;;-0.53;100.00;101460.44;105938;1256;98027;-79
2024/03/20 06:27:03;;;;;;;31.30;18.00;;;;;;;-0.44;100.00;101461.97;106098;1256;97962;-78
2024/03/20 06:29:51;;;;;;;37.00;20.10;;;;;;;-0.36;100.00;101453.75;105629;1262;101342;-78
2024/03/20 06:32:39;;;;;;;39.20;19.60;;;;;;;-0.28;100.00;101451.08;105867;1257;99473;-78
2024/03/20 06:35:30;;;;;;;33.90;17.20;;;;;;;-0.21;100.00;101444.15;105870;1256;98062;-79
2024/03/20 06:38:19;;;;;;;34.30;19.60;;;;;;;-0.14;100.00;101445.97;105889;1260;97891;-78
2024/03/20 06:41:04;;;;;;;33.90;18.20;;;;;;;-0.05;100.00;101452.22;106304;1260;96620;-78
2024/03/20 06:43:52;;;;;;;34.80;18.40;;;;;;;0.06;100.00;101459.98;105980;1256;102653;-79
2024/03/20 06:46:37;;;;;;;33.70;17.70;;;;;;;0.16;100.00;101467.95;105951;1262;99167;-79
2024/03/20 06:49:25;;;;;;;33.90;19.40;;;;;;;0.25;100.00;101469.23;105735;1259;97974;-77
2024/03/20 06:52:16;;;;;;;35.60;19.00;;;;;;;0.36;100.00;101468.55;105922;1256;98819;-80
2024/03/20 06:55:02;;;;;;;38.80;20.30;;;;;;;0.47;100.00;101469.34;105717;1260;97788;-79
2024/03/20 06:57:48;;;;;;;33.70;19.20;;;;;;;0.58;100.00;101467.73;105904;1256;101310;-80
2024/03/20 07:00:34;;;;;;;32.00;17.40;;;;;;;0.69;100.00;101471.41;105995;1259;100183;-79
2024/03/20 07:03:19;;;;;;;108.00;48.10;;;;;;;0.80;100.00;101476.81;105889;1257;98536;-79
2024/03/20 07:06:05;;;;;;;57.10;30.90;;;;;;;0.91;100.00;101478.02;106117;1256;97910;-78
2024/03/20 07:08:51;;;;;;;38.80;20.60;;;;;;;0.99;100.00;101478.65;106279;1256;98451;-86
2024/03/20 07:11:37;;;;;;;34.10;19.10;;;;;;;1.08;100.00;101476.13;106395;1256;102685;-87
2024/03/20 07:14:26;;;;;;;40.40;24.80;;;;;;;1.19;100.00;101472.70;106397;1256;99609;-87
2024/03/20 07:17:12;;;;;;;34.60;21.10;;;;;;;1.31;100.00;101470.27;106231;1257;98969;-81
2024/03/20 07:19:58;;;;;;;32.20;18.40;;;;;;;1.41;100.00;101473.27;105926;1262;97907;-84
2024/03/20 07:22:44;;;;;;;29.90;18.50;;;;;;;1.49;100.00;101466.50;106353;1256;98902;-84
2024/03/20 07:25:31;;;;;;;31.00;18.20;;;;;;;1.62;100.00;101461.20;106232;1256;101399;-86
2024/03/20 07:28:23;;;;;;;29.80;18.20;;;;;;;1.75;100.00;101463.23;106033;1256;100540;-86
2024/03/20 07:31:09;;;;;;;30.80;17.70;;;;;;;1.84;100.00;101466.86;106083;1256;98930;-83
2024/03/20 07:33:55;;;;;;;29.10;16.60;;;;;;;1.90;100.00;101462.37;106464;1256;97782;-87
2024/03/20 07:36:42;;;;;;;27.90;16.40;;;;;;;1.95;100.00;101459.15;106397;1256;97964;-79
2024/03/20 07:39:32;;;;;;;32.30;18.80;;;;;;;2.00;100.00;101456.83;106922;1259;102723;-81
2024/03/20 07:42:18;;;;;;;28.80;15.80;;;;;;;2.03;100.00;101456.24;106904;1259;99150;-81
2024/03/20 07:45:04;;;;;;;29.30;17.20;;;;;;;2.04;100.00;101457.27;106990;1256;99619;-80
2024/03/20 07:47:49;;;;;;;28.60;16.20;;;;;;;2.07;100.00;101461.29;106440;1257;97946;-81
2024/03/20 07:50:35;;;;;;;30.10;17.40;;;;;;;2.09;100.00;101455.10;106266;1262;98472;-82
2024/03/20 07:53:21;;;;;;;28.10;17.10;;;;;;;2.14;100.00;101450.35;106347;1256;101600;-78
2024/03/20 07:56:06;;;;;;;28.50;17.00;;;;;;;2.20;100.00;101447.23;106471;1256;99118;-79
2024/03/20 07:58:52;;;;;;;27.00;16.50;;;;;;;2.28;100.00;101445.97;106324;1256;98967;-81
2024/03/20 08:01:39;;;;;;;32.30;18.60;;;;;;;2.33;100.00;101449.98;106494;1256;97996;-79
2024/03/20 08:04:25;;;;;;;26.90;15.50;;;;;;;2.40;100.00;101454.41;106392;1257;98422;-80
2024/03/20 08:07:11;;;;;;;29.50;16.90;;;;;;;2.44;100.00;101455.85;106405;1262;102235;-83
2024/03/20 08:09:56;;;;;;;32.60;20.20;;;;;;;2.50;100.00;101459.33;106384;1256;101284;-83
2024/03/20 08:12:42;;;;;;;31.00;18.30;;;;;;;2.59;100.00;101458.27;105861;1256;97852;-81
2024/03/20 08:15:28;;;;;;;30.40;17.20;;;;;;;2.66;100.00;101457.59;106174;1260;97943;-82
2024/03/20 08:18:14;;;;;;;33.30;19.60;;;;;;;2.75;100.00;101456.83;106452;1262;99835;-81
2024/03/20 08:21:00;;;;;;;35.90;18.60;;;;;;;2.86;100.00;101462.86;105756;1259;101844;-85
2024/03/20 08:23:46;;;;;;;28.60;17.20;;;;;;;2.94;100.00;101466.11;107046;1258;101459;-86
2024/03/20 08:26:32;;;;;;;30.50;17.60;;;;;;;3.01;100.00;101471.08;106627;1256;97813;-90
2024/03/20 08:29:18;;;;;;;28.30;17.40;;;;;;;3.02;100.00;101474.85;106858;1266;96336;-83
2024/03/20 08:32:09;;;;;;;29.90;17.10;;;;;;;3.03;100.00;101474.60;106553;1262;98494;-79
2024/03/20 08:34:55;;;;;;;32.20;19.90;;;;;;;3.05;100.00;101474.27;106255;1256;102596;-80
2024/03/20 08:37:40;;;;;;;40.70;22.10;;;;;;;3.12;100.00;101471.95;106384;1256;99843;-80
2024/03/20 08:40:26;;;;;;;33.20;19.30;;;;;;;3.22;100.00;101467.15;106574;1259;98525;-79
2024/03/20 08:43:12;;;;;;;36.20;19.50;;;;;;;3.29;100.00;101469.41;105993;1256;97992;-80
2024/03/20 08:45:58;;;;;;;49.10;25.50;;;;;;;3.35;100.00;101468.79;106363;1262;98405;-79
2024/03/20 08:48:44;;;;;;;34.80;19.20;;;;;;;3.39;100.00;101468.61;106138;1262;101348;-81
2024/03/20 08:51:29;;;;;;;112.10;50.40;;;;;;;3.46;100.00;101465.27;106141;1262;99937;-81
2024/03/20 08:54:15;;;;;;;53.30;31.50;;;;;;;3.55;100.00;101466.23;106750;1259;97875;-81
2024/03/20 08:57:03;;;;;;;33.70;20.40;;;;;;;3.61;100.00;101468.09;106693;1262;97967;-79
2024/03/20 08:59:49;;;;;;;30.60;18.50;;;;;;;3.66;100.00;101464.02;106205;1256;98053;-80
2024/03/20 09:02:34;;;;;;;30.80;18.00;;;;;;;3.67;100.00;101466.61;106560;1259;101332;-80
2024/03/20 09:05:21;;;;;;;30.60;18.40;;;;;;;3.71;100.00;101466.55;106701;1256;100329;-80
2024/03/20 09:08:08;;;;;;;31.60;18.80;;;;;;;3.83;100.00;101467.71;106704;1256;98949;-80
2024/03/20 09:10:54;;;;;;;34.20;21.40;;;;;;;3.98;100.00;101469.02;106403;1256;97885;-82
2024/03/20 09:13:39;;;;;;;33.00;20.50;;;;;;;4.06;100.00;101466.77;106305;1256;98404;-81
2024/03/20 09:16:24;;;;;;;29.30;18.20;;;;;;;4.10;100.00;101467.00;106729;1262;101726;-81
2024/03/20 09:19:10;;;;;;;49.60;27.00;;;;;;;4.16;100.00;101464.04;106523;1257;99701;-81
2024/03/20 09:21:55;;;;;;;40.30;22.80;;;;;;;4.25;100.00;101465.05;106276;1260;98003;-83
2024/03/20 09:24:41;;;;;;;34.00;19.90;;;;;;;4.34;100.00;101462.64;106898;1256;97958;-85
2024/03/20 09:27:26;;;;;;;33.40;18.90;;;;;;;4.44;100.00;101462.58;106427;1256;97406;-82
2024/03/20 09:30:15;;;;;;;28.40;17.40;;;;;;;4.52;100.00;101459.58;106248;1256;102406;-90
2024/03/20 09:33:01;;;;;;;31.80;18.30;;;;;;;4.59;100.00;101455.09;106167;1262;99168;-82
2024/03/20 09:35:47;;;;;;;30.80;19.40;;;;;;;4.66;100.00;101453.02;106404;1257;99054;-82
2024/03/20 09:38:33;;;;;;;27.80;17.70;;;;;;;4.76;100.00;101453.45;106206;1256;98061;-83
2024/03/20 09:41:22;;;;;;;30.20;17.10;;;;;;;4.86;100.00;101451.58;106160;1256;96141;-83
2024/03/20 09:44:12;;;;;;;28.70;17.30;;;;;;;4.92;100.00;101450.35;106183;1256;103441;-78
2024/03/20 09:47:00;;;;;;;30.20;17.60;;;;;;;4.95;100.00;101446.71;106240;1256;99294;-81
2024/03/20 09:49:47;;;;;;;30.00;18.80;;;;;;;4.99;100.00;101446.94;106217;1256;97997;-82
2024/03/20 09:52:34;;;;;;;28.00;16.60;;;;;;;5.09;100.00;101447.14;106147;1256;95949;-84
2024/03/20 09:55:21;;;;;;;31.40;18.80;;;;;;;5.19;100.00;101442.68;106797;1257;97917;-91
2024/03/20 10:01:35;;;;;;;45.90;24.20;;;;;;;5.42;100.00;101446.16;106585;1257;100385;-88
2024/03/20 10:04:28;;;;;;;28.30;17.80;;;;;;;5.52;100.00;101448.14;106428;1262;99030;-85
2024/03/20 10:07:14;;;;;;;27.70;18.20;;;;;;;5.58;100.00;101448.52;106662;1259;97942;-83
2024/03/20 10:10:06;;;;;;;27.70;16.90;;;;;;;5.64;100.00;101446.73;106639;1257;98402;-90
2024/03/20 10:12:52;;;;;;;25.30;16.50;;;;;;;5.69;99.97;101447.87;106482;1257;102682;-87
2024/03/20 10:15:38;;;;;;;24.10;14.90;;;;;;;5.70;99.54;101446.52;106240;1257;101625;-84
2024/03/20 10:18:46;;;;;;;24.50;15.70;;;;;;;5.69;98.58;101441.69;106490;1257;98491;-85
2024/03/20 10:21:38;;;;;;;23.00;15.60;;;;;;;5.67;98.37;101433.89;106694;1256;97885;-85
2024/03/20 10:24:23;;;;;;;22.70;15.00;;;;;;;5.68;97.98;101432.36;106392;1257;98178;-83
2024/03/20 10:27:09;;;;;;;23.50;15.60;;;;;;;5.70;97.72;101430.55;106170;1257;101325;-83
2024/03/20 10:30:00;;;;;;;23.40;15.00;;;;;;;5.72;97.37;101425.09;106358;1257;100119;-82
2024/03/20 10:32:56;;;;;;;24.90;15.40;;;;;;;5.76;97.64;101425.29;106259;1260;97925;-84
2024/03/20 10:36:36;;;;;;;26.60;16.80;;;;;;;5.87;97.12;101423.61;103029;1294;640638;-77
2024/03/20 10:39:23;;;;;;;22.70;15.60;;;;;;;5.92;97.60;101421.58;104976;1265;97336;-77
2024/03/20 10:42:11;;;;;;;21.60;15.00;;;;;;;6.00;97.44;101421.13;105028;1268;96895;-77
2024/03/20 10:44:57;;;;;;;24.40;15.10;;;;;;;6.08;96.85;101419.52;104879;1266;98802;-79
2024/03/20 10:47:47;;;;;;;22.80;15.50;;;;;;;6.12;96.40;101415.77;104769;1268;99351;-75
2024/03/20 10:50:32;;;;;;;27.00;16.90;;;;;;;6.17;96.56;101412.11;104742;1263;156717;-77
2024/03/20 10:53:20;;;;;;;25.30;16.60;;;;;;;6.26;96.60;101411.31;104948;1263;96169;-76
2024/03/20 10:56:06;;;;;;;29.50;16.40;;;;;;;6.33;96.28;101407.67;105823;1265;95900;-77
2024/03/20 10:59:01;;;;;;;25.80;16.60;;;;;;;6.41;96.38;101403.81;104996;1263;99901;-75
2024/03/20 11:01:58;;;;;;;22.50;15.00;;;;;;;6.48;95.42;101399.35;104965;1263;99169;-77
2024/03/20 11:04:44;;;;;;;25.10;15.60;;;;;;;6.52;94.79;101396.98;104829;1267;97780;-78
2024/03/20 11:07:29;;;;;;;22.80;15.20;;;;;;;6.54;94.30;101391.89;105174;1259;97264;-78
2024/03/20 11:10:19;;;;;;;22.90;14.60;;;;;;;6.51;93.67;101390.08;105292;1259;97278;-78
2024/03/20 11:13:19;;;;;;;25.20;16.50;;;;;;;6.45;93.44;101389.05;105326;1260;99990;-79
2024/03/20 11:16:06;;;;;;;23.10;16.10;;;;;;;6.45;93.67;101385.98;105338;1265;99101;-78
2024/03/20 11:18:56;;;;;;;24.30;16.80;;;;;;;6.46;93.90;101383.27;105150;1262;98886;-78
2024/03/20 11:21:45;;;;;;;27.80;17.40;;;;;;;6.50;94.10;101385.17;104889;1266;96557;-77
2024/03/20 11:24:31;;;;;;;23.60;16.70;;;;;;;6.55;93.81;101383.13;104857;1262;97075;-77
2024/03/20 11:27:17;;;;;;;26.40;17.90;;;;;;;6.59;94.05;101385.70;105129;1259;99972;-75
2024/03/20 11:30:04;;;;;;;26.10;17.20;;;;;;;6.64;93.43;101383.77;105316;1259;99253;-76
2024/03/20 11:32:50;;;;;;;25.00;16.70;;;;;;;6.71;93.10;101386.58;105212;1264;97752;-77
2024/03/20 11:35:36;;;;;;;22.30;16.70;;;;;;;6.76;92.84;101387.30;106228;1261;97517;-80
2024/03/20 11:38:28;;;;;;;31.40;22.10;;;;;;;6.77;92.06;101384.16;106197;1262;96583;-82
2024/03/20 11:41:19;;;;;;;28.30;19.10;;;;;;;6.80;92.56;101376.50;106173;1259;101178;-82
2024/03/20 11:44:07;;;;;;;25.00;17.80;;;;;;;6.86;92.63;101369.55;106128;1261;99108;-82
2024/03/20 11:46:53;;;;;;;25.30;17.30;;;;;;;6.94;92.41;101366.96;105815;1262;99161;-80
2024/03/20 11:49:43;;;;;;;24.90;16.20;;;;;;;7.02;92.33;101360.91;106206;1259;96546;-81
2024/03/20 11:52:28;;;;;;;27.00;17.20;;;;;;;7.10;92.16;101358.86;106213;1260;97051;-82
2024/03/20 11:55:15;;;;;;;24.10;16.10;;;;;;;7.15;91.86;101353.93;106391;1265;100010;-81
2024/03/20 11:58:02;;;;;;;23.80;16.60;;;;;;;7.23;92.10;101347.17;106272;1261;100399;-84
2024/03/20 12:00:48;;;;;;;29.80;20.80;;;;;;;7.32;91.99;101344.63;106041;1259;99027;-80
2024/03/20 12:03:39;;;;;;;27.60;18.90;;;;;;;7.41;91.67;101343.07;105365;1264;97039;-81
2024/03/20 12:06:25;;;;;;;;;;;;;;;7.49;91.35;101337.66;106285;1262;96607;-81
2024/03/20 12:09:16;;;;;;;23.50;16.10;;;;;;;7.58;91.54;101333.02;106510;1260;101322;-83
2024/03/20 12:12:01;;;;;;;23.70;16.50;;;;;;;7.68;90.08;101330.63;105728;1263;99103;-89
2024/03/20 12:14:49;;;;;;;21.90;15.80;;;;;;;7.72;89.77;101332.02;106189;1267;99930;-87
2024/03/20 12:17:40;;;;;;;24.50;18.10;;;;;;;7.73;88.85;101328.48;106707;1257;95952;-90
2024/03/20 12:20:28;;;;;;;22.00;16.00;;;;;;;7.77;89.28;101328.27;106258;1259;97044;-82
2024/03/20 12:23:14;;;;;;;23.80;16.50;;;;;;;7.84;88.67;101329.89;106424;1264;100004;-82
2024/03/20 12:25:59;;;;;;;23.10;16.40;;;;;;;7.88;88.17;101328.33;106505;1259;100411;-83
2024/03/20 12:28:46;;;;;;;24.30;17.30;;;;;;;7.92;87.45;101321.83;106029;1259;98922;-80
2024/03/20 12:31:32;;;;;;;25.40;16.70;;;;;;;7.98;87.63;101320.73;106578;1258;96958;-89
2024/03/20 12:34:18;;;;;;;25.30;17.10;;;;;;;8.07;88.57;101318.38;106589;1256;96539;-88